createdAt,value
2023-05-01T00:00:32.942Z,101298.84
2023-05-01T00:03:01.073Z,101309.78
2023-05-01T00:05:29.244Z,101310.50
2023-05-01T00:07:58.144Z,101303.44
2023-05-01T00:10:26.166Z,101305.94
2023-05-01T00:12:55.573Z,101300.56
2023-05-01T00:15:24.812Z,101305.78
2023-05-01T00:17:55.408Z,101310.00
2023-05-01T00:20:23.764Z,101306.25
2023-05-01T00:22:51.604Z,101311.28
2023-05-01T00:25:19.580Z,101310.13
2023-05-01T00:27:48.449Z,101310.13
2023-05-01T00:30:17.810Z,101305.75
2023-05-01T00:32:45.820Z,101295.47
2023-05-01T00:35:13.747Z,101302.72
2023-05-01T00:37:42.243Z,101303.44
2023-05-01T00:40:10.739Z,101176.22
2023-05-01T00:42:40.831Z,101298.81
2023-05-01T00:45:09.525Z,101223.28
2023-05-01T00:47:39.530Z,101299.34
2023-05-01T00:50:09.038Z,101284.94
2023-05-01T00:52:37.368Z,101297.38
2023-05-01T00:55:06.062Z,101292.81
2023-05-01T00:57:34.059Z,101298.84
2023-05-01T01:00:01.903Z,101298.56
2023-05-01T01:02:30.104Z,101291.44
2023-05-01T01:04:59.827Z,101297.38
2023-05-01T01:07:37.896Z,101302.31
2023-05-01T01:10:14.690Z,101290.84
2023-05-01T01:12:54.021Z,101291.47
2023-05-01T01:15:29.888Z,101251.91
2023-05-01T01:18:06.465Z,101284.94
2023-05-01T01:20:40.233Z,101288.53
2023-05-01T01:23:36.219Z,101290.03
2023-05-01T01:26:21.102Z,101280.28
2023-05-01T01:29:42.700Z,101242.22
2023-05-01T01:32:51.026Z,101290.16
2023-05-01T01:35:28.905Z,101258.78
2023-05-01T01:38:02.748Z,101284.41
2023-05-01T01:40:38.069Z,101281.91
2023-05-01T01:43:09.054Z,101275.72
2023-05-01T01:45:41.064Z,101271.34
2023-05-01T01:48:12.285Z,101278.94
2023-05-01T01:50:43.589Z,101097.13
2023-05-01T01:53:14.493Z,101268.38
2023-05-01T01:55:45.114Z,101245.00
2023-05-01T01:58:13.464Z,101269.91
2023-05-01T02:00:43.586Z,101266.13
2023-05-01T02:03:12.096Z,101204.16
2023-05-01T02:05:43.425Z,101266.84
2023-05-01T02:08:14.615Z,101245.44
2023-05-01T02:10:44.103Z,101250.56
2023-05-01T02:13:14.627Z,101262.09
2023-05-01T02:15:43.653Z,101262.00
2023-05-01T02:18:12.853Z,101261.13
2023-05-01T02:20:44.109Z,101265.31
2023-05-01T02:23:14.046Z,101200.03
2023-05-01T02:25:43.803Z,101259.16
2023-05-01T02:28:14.485Z,101260.75
2023-05-01T02:30:42.362Z,101241.94
2023-05-01T02:33:11.027Z,101241.50
2023-05-01T02:35:45.003Z,101237.47
2023-05-01T02:38:13.918Z,101241.78
2023-05-01T02:40:45.761Z,101242.59
2023-05-01T02:43:15.819Z,101243.38
2023-05-01T02:45:44.942Z,101232.81
2023-05-01T02:48:18.296Z,101230.22
2023-05-01T02:50:49.499Z,101233.72
2023-05-01T02:53:18.706Z,101208.03
2023-05-01T02:55:46.749Z,101220.66
2023-05-01T02:58:18.073Z,101224.03
2023-05-01T03:00:46.117Z,101215.47
2023-05-01T03:03:16.352Z,101218.06
2023-05-01T03:05:46.733Z,101222.34
2023-05-01T03:08:16.124Z,101221.44
2023-05-01T03:10:44.436Z,101210.19
2023-05-01T03:13:12.933Z,101219.66
2023-05-01T03:15:41.445Z,101127.81
2023-05-01T03:18:09.697Z,101216.25
2023-05-01T03:20:37.951Z,101211.16
2023-05-01T03:23:06.648Z,101214.75
2023-05-01T03:25:37.075Z,101213.03
2023-05-01T03:28:05.109Z,101190.75
2023-05-01T03:30:35.017Z,101194.59
2023-05-01T03:33:03.144Z,101211.59
2023-05-01T03:35:31.173Z,101204.00
2023-05-01T03:37:59.176Z,101203.19
2023-05-01T03:40:27.015Z,101205.97
2023-05-01T03:42:56.377Z,101199.16
2023-05-01T03:45:24.729Z,101197.56
2023-05-01T03:47:53.125Z,101194.94
2023-05-01T03:50:21.114Z,101194.69
2023-05-01T03:52:49.068Z,101202.75
2023-05-01T03:55:17.034Z,101207.03
2023-05-01T03:57:47.215Z,101200.94
2023-05-01T04:00:17.009Z,101195.75
2023-05-01T04:02:46.700Z,101173.38
2023-05-01T04:05:15.135Z,101196.75
2023-05-01T04:07:43.794Z,101163.72
2023-05-01T04:10:11.853Z,101191.72
2023-05-01T04:12:39.722Z,101193.50
2023-05-01T04:15:08.809Z,101184.09
2023-05-01T04:17:38.324Z,101180.16
2023-05-01T04:20:07.283Z,101186.59
2023-05-01T04:22:35.389Z,101180.84
2023-05-01T04:25:03.804Z,101177.63
2023-05-01T04:27:31.703Z,101180.66
2023-05-01T04:29:59.948Z,101155.13
2023-05-01T04:32:28.247Z,101178.56
2023-05-01T04:34:57.927Z,101186.53
2023-05-01T04:37:26.057Z,101017.50
2023-05-01T04:39:54.277Z,101169.00
2023-05-01T04:42:22.300Z,101182.81
2023-05-01T04:44:50.890Z,101154.56
2023-05-01T04:47:18.785Z,101180.41
2023-05-01T04:49:46.804Z,101062.66
2023-05-01T04:52:16.540Z,101190.06
2023-05-01T04:54:45.163Z,101186.00
2023-05-01T04:57:13.052Z,101188.28
2023-05-01T04:59:41.032Z,101182.50
2023-05-01T05:02:09.148Z,101179.22
2023-05-01T05:04:37.172Z,101178.31
2023-05-01T05:07:05.190Z,101187.72
2023-05-01T05:09:34.640Z,101181.06
2023-05-01T05:12:04.001Z,101175.22
2023-05-01T05:14:32.248Z,101174.47
2023-05-01T05:17:00.582Z,101146.88
2023-05-01T05:19:28.602Z,101172.94
2023-05-01T05:21:56.685Z,101167.06
2023-05-01T05:24:24.690Z,101162.97
2023-05-01T05:26:54.886Z,101161.03
2023-05-01T05:29:22.887Z,101049.50
2023-05-01T05:31:50.961Z,101147.91
2023-05-01T05:34:19.697Z,101162.97
2023-05-01T05:36:47.662Z,101160.47
2023-05-01T05:39:15.589Z,101152.91
2023-05-01T05:41:43.462Z,101171.84
2023-05-01T05:44:12.767Z,101153.81
2023-05-01T05:46:40.982Z,101173.47
2023-05-01T05:49:08.837Z,101168.66
2023-05-01T05:51:36.863Z,101167.84
2023-05-01T05:54:05.742Z,101171.91
2023-05-01T05:56:33.583Z,101162.56
2023-05-01T05:59:04.131Z,101170.75
2023-05-01T06:01:33.776Z,101139.94
2023-05-01T06:04:01.633Z,101147.31
2023-05-01T06:06:29.762Z,101163.41
2023-05-01T06:08:57.879Z,101158.50
2023-05-01T06:11:26.135Z,101163.94
2023-05-01T06:13:54.706Z,101158.94
2023-05-01T06:16:22.916Z,101138.34
2023-05-01T06:18:52.610Z,101147.41
2023-05-01T06:21:20.649Z,101151.69
2023-05-01T06:23:48.772Z,101150.34
2023-05-01T06:26:16.600Z,101148.72
2023-05-01T06:28:44.553Z,101149.00
2023-05-01T06:31:12.614Z,101151.59
2023-05-01T06:33:40.444Z,101153.78
2023-05-01T06:36:10.049Z,101156.78
2023-05-01T06:38:38.011Z,101136.16
2023-05-01T06:41:06.295Z,101150.41
2023-05-01T06:43:34.343Z,100956.22
2023-05-01T06:46:02.390Z,101124.50
2023-05-01T06:48:30.378Z,101145.03
2023-05-01T06:50:58.388Z,101094.66
2023-05-01T06:53:27.721Z,101137.69
2023-05-01T06:55:55.606Z,101143.94
2023-05-01T06:58:24.616Z,101145.94
2023-05-01T07:00:53.635Z,101138.03
2023-05-01T07:03:21.824Z,101139.97
2023-05-01T07:05:49.882Z,101121.22
2023-05-01T07:08:17.816Z,101143.81
2023-05-01T07:10:47.180Z,101138.13
2023-05-01T07:13:15.122Z,101140.44
2023-05-01T07:15:43.042Z,101116.53
2023-05-01T07:18:12.572Z,101107.25
2023-05-01T07:20:40.970Z,101127.59
2023-05-01T07:23:09.821Z,101129.69
2023-05-01T07:25:41.490Z,101128.81
2023-05-01T07:28:10.850Z,101130.25
2023-05-01T07:30:38.729Z,101125.66
2023-05-01T07:33:07.099Z,101125.72
2023-05-01T07:35:35.097Z,101126.31
2023-05-01T07:38:03.090Z,101091.38
2023-05-01T07:40:31.171Z,101122.22
2023-05-01T07:42:59.095Z,101115.47
2023-05-01T07:45:28.539Z,101053.69
2023-05-01T07:47:57.256Z,100956.25
2023-05-01T07:50:26.103Z,101113.31
2023-05-01T07:52:54.030Z,101083.00
2023-05-01T07:55:23.022Z,101104.16
2023-05-01T07:57:51.240Z,101102.56
2023-05-01T08:00:19.741Z,101092.16
2023-05-01T08:02:49.199Z,101102.06
2023-05-01T08:05:17.312Z,101097.31
2023-05-01T08:07:46.133Z,101093.75
2023-05-01T08:10:14.730Z,101098.69
2023-05-01T08:12:43.867Z,101098.84
2023-05-01T08:15:11.774Z,101066.13
2023-05-01T08:17:39.831Z,101099.88
2023-05-01T08:20:10.595Z,101100.03
2023-05-01T08:22:38.499Z,101104.69
2023-05-01T08:25:07.477Z,101063.16
2023-05-01T08:27:35.438Z,101108.19
2023-05-01T08:30:03.424Z,101054.31
2023-05-01T08:32:32.546Z,101105.41
2023-05-01T08:35:00.503Z,101101.47
2023-05-01T08:37:32.590Z,101112.28
2023-05-01T08:40:00.559Z,101107.94
2023-05-01T08:42:32.197Z,101096.97
2023-05-01T08:45:02.498Z,101096.97
2023-05-01T08:47:31.408Z,101081.81
2023-05-01T08:50:00.652Z,101093.97
2023-05-01T08:52:30.187Z,101108.53
2023-05-01T08:55:01.547Z,101083.78
2023-05-01T08:57:31.781Z,101076.44
2023-05-01T09:00:00.872Z,101049.31
2023-05-01T09:02:29.968Z,101096.00
2023-05-01T09:04:59.454Z,101088.66
2023-05-01T09:07:27.406Z,101035.53
2023-05-01T09:09:58.153Z,101062.56
2023-05-01T09:12:28.296Z,101077.19
2023-05-01T09:14:57.570Z,101062.03
2023-05-01T09:17:26.267Z,101058.69
2023-05-01T09:19:54.832Z,101069.84
2023-05-01T09:22:22.976Z,101057.53
2023-05-01T09:24:50.981Z,101073.28
2023-05-01T09:27:19.381Z,101073.63
2023-05-01T09:29:49.698Z,101054.44
2023-05-01T09:32:21.179Z,100884.63
2023-05-01T09:34:50.230Z,101065.03
2023-05-01T09:37:28.591Z,101068.06
2023-05-01T09:40:08.563Z,101051.25
2023-05-01T09:42:37.953Z,101047.75
2023-05-01T09:45:13.705Z,101041.69
2023-05-01T09:47:42.698Z,101036.69
2023-05-01T09:50:11.715Z,101038.75
2023-05-01T09:52:39.548Z,101033.19
2023-05-01T09:55:15.033Z,100993.84
2023-05-01T09:57:44.023Z,101052.22
2023-05-01T10:00:15.938Z,101040.59
2023-05-01T10:02:47.020Z,101041.25
2023-05-01T10:05:15.522Z,101026.56
2023-05-01T10:07:58.369Z,101028.88
2023-05-01T10:10:26.623Z,101027.94
2023-05-01T10:12:55.063Z,101026.72
2023-05-01T10:15:26.680Z,101019.59
2023-05-01T10:17:55.827Z,101014.47
2023-05-01T10:20:24.052Z,101014.06
2023-05-01T10:22:52.141Z,101007.50
2023-05-01T10:25:22.750Z,101015.22
2023-05-01T10:27:52.991Z,101002.50
2023-05-01T10:30:22.344Z,100973.13
2023-05-01T10:32:52.929Z,100989.88
2023-05-01T10:35:27.432Z,100992.31
2023-05-01T10:38:02.681Z,100987.31
2023-05-01T10:40:49.963Z,100983.00
2023-05-01T10:43:21.028Z,100989.03
2023-05-01T10:45:49.845Z,100981.72
2023-05-01T10:48:57.509Z,100998.78
2023-05-01T10:51:27.705Z,100991.81
2023-05-01T10:54:27.426Z,100992.38
2023-05-01T10:56:56.521Z,100964.09
2023-05-01T10:59:24.596Z,100947.84
2023-05-01T11:01:53.834Z,100967.22
2023-05-01T11:04:56.393Z,100970.66
2023-05-01T11:07:26.288Z,100965.00
2023-05-01T11:09:58.878Z,100966.34
2023-05-01T11:12:51.189Z,100963.94
2023-05-01T11:15:32.916Z,100936.41
2023-05-01T11:18:02.464Z,100952.81
2023-05-01T11:20:53.770Z,100954.78
2023-05-01T11:23:23.236Z,100936.97
2023-05-01T11:25:51.813Z,100950.16
2023-05-01T11:28:23.480Z,100953.78
2023-05-01T11:30:51.472Z,100930.00
2023-05-01T11:33:26.056Z,100929.41
2023-05-01T11:36:05.083Z,100928.31
2023-05-01T11:38:33.342Z,100922.00
2023-05-01T11:41:05.268Z,100924.97
2023-05-01T11:43:33.440Z,100770.50
2023-05-01T11:46:04.676Z,100921.31
2023-05-01T11:48:33.054Z,100919.78
2023-05-01T11:51:00.914Z,100900.00
2023-05-01T11:53:30.812Z,100918.38
2023-05-01T11:55:59.569Z,100913.66
2023-05-01T11:58:36.677Z,100915.22
2023-05-01T12:01:07.352Z,100912.03
2023-05-01T12:03:45.239Z,100910.59
2023-05-01T12:06:14.248Z,100833.25
2023-05-01T12:08:53.282Z,100920.13
2023-05-01T12:11:21.494Z,100906.56
2023-05-01T12:13:50.316Z,100915.25
2023-05-01T12:16:18.773Z,100906.75
2023-05-01T12:18:47.086Z,100912.97
2023-05-01T12:21:18.258Z,100900.41
2023-05-01T12:23:47.612Z,100891.19
2023-05-01T12:26:19.509Z,100843.03
2023-05-01T12:28:57.754Z,100738.53
2023-05-01T12:31:27.107Z,100895.72
2023-05-01T12:33:56.740Z,100891.19
2023-05-01T12:36:27.594Z,100876.72
2023-05-01T12:39:04.545Z,100893.44
2023-05-01T12:41:40.166Z,100852.34
2023-05-01T12:44:19.782Z,100891.84
2023-05-01T12:46:55.218Z,100872.84
2023-05-01T12:49:24.399Z,100885.19
2023-05-01T12:51:53.656Z,100881.50
2023-05-01T12:54:28.748Z,100886.56
2023-05-01T12:57:07.937Z,100873.09
2023-05-01T12:59:37.612Z,100861.59
2023-05-01T13:02:10.867Z,100876.88
2023-05-01T13:04:39.401Z,100874.00
2023-05-01T13:07:13.127Z,100875.72
2023-05-01T13:09:52.848Z,100867.72
2023-05-01T13:12:20.765Z,100864.06
2023-05-01T13:14:49.248Z,100759.00
2023-05-01T13:17:24.198Z,100827.00
2023-05-01T13:19:55.691Z,100861.03
2023-05-01T13:22:33.822Z,100879.09
2023-05-01T13:25:04.342Z,100852.63
2023-05-01T13:27:32.589Z,100829.47
2023-05-01T13:30:02.524Z,100845.56
2023-05-01T13:32:30.612Z,100825.22
2023-05-01T13:35:01.588Z,100838.00
2023-05-01T13:37:30.608Z,100837.94
2023-05-01T13:39:59.745Z,100830.06
2023-05-01T13:42:29.243Z,100828.16
2023-05-01T13:44:58.750Z,100830.00
2023-05-01T13:47:28.645Z,100831.97
2023-05-01T13:49:57.481Z,100819.97
2023-05-01T13:52:26.287Z,100818.19
2023-05-01T13:54:57.808Z,100652.41
2023-05-01T13:57:26.288Z,100811.47
2023-05-01T13:59:55.616Z,100770.63
2023-05-01T14:02:28.469Z,100811.25
2023-05-01T14:04:58.573Z,100802.69
2023-05-01T14:07:28.508Z,100733.66
2023-05-01T14:09:57.641Z,100790.16
2023-05-01T14:12:27.853Z,100790.53
2023-05-01T14:14:57.877Z,100778.59
2023-05-01T14:17:30.910Z,100775.28
2023-05-01T14:19:58.873Z,100763.75
2023-05-01T14:22:29.981Z,100769.09
2023-05-01T14:24:59.331Z,100753.16
2023-05-01T14:27:27.433Z,100761.88
2023-05-01T14:29:56.835Z,100740.31
2023-05-01T14:32:24.842Z,100751.25
2023-05-01T14:34:52.825Z,100741.66
2023-05-01T14:37:20.831Z,100727.34
2023-05-01T14:39:48.785Z,100731.84
2023-05-01T14:42:17.284Z,100724.09
2023-05-01T14:44:45.360Z,100731.22
2023-05-01T14:47:21.180Z,100718.38
2023-05-01T14:49:53.409Z,100703.50
2023-05-01T14:52:22.540Z,100716.72
2023-05-01T14:54:52.487Z,100707.88
2023-05-01T14:57:20.297Z,100676.81
2023-05-01T14:59:48.202Z,100644.81
2023-05-01T15:02:17.561Z,100684.06
2023-05-01T15:04:45.808Z,100682.16
2023-05-01T15:07:13.817Z,100676.69
2023-05-01T15:09:42.963Z,100673.97
2023-05-01T15:12:11.465Z,100658.19
2023-05-01T15:14:39.471Z,100665.97
2023-05-01T15:17:07.596Z,100649.38
2023-05-01T15:19:37.414Z,100619.16
2023-05-01T15:22:05.650Z,100636.88
2023-05-01T15:24:33.550Z,100625.38
2023-05-01T15:27:01.567Z,100604.81
2023-05-01T15:29:29.463Z,100482.09
2023-05-01T15:32:10.777Z,100617.38
2023-05-01T15:34:42.968Z,100609.56
2023-05-01T15:37:10.982Z,100569.56
2023-05-01T15:39:40.376Z,100572.47
2023-05-01T15:42:08.372Z,100586.13
2023-05-01T15:44:36.383Z,100555.38
2023-05-01T15:47:04.676Z,100567.16
2023-05-01T15:49:32.859Z,100492.75
2023-05-01T15:52:02.921Z,100555.16
2023-05-01T15:54:30.780Z,100553.56
2023-05-01T15:56:58.890Z,100546.81
2023-05-01T15:59:28.201Z,100556.56
2023-05-01T16:01:56.151Z,100546.28
2023-05-01T16:04:24.030Z,100532.47
2023-05-01T16:06:52.089Z,100531.63
2023-05-01T16:09:32.216Z,100541.28
2023-05-01T16:12:00.829Z,100568.25
2023-05-01T16:14:29.159Z,100590.88
2023-05-01T16:16:57.251Z,100582.22
2023-05-01T16:19:25.647Z,100500.91
2023-05-01T16:21:53.493Z,100529.38
2023-05-01T16:24:22.922Z,100510.13
2023-05-01T16:26:51.014Z,100509.19
2023-05-01T16:29:19.676Z,100493.44
2023-05-01T16:31:47.915Z,100492.31
2023-05-01T16:34:18.174Z,100447.81
2023-05-01T16:36:47.012Z,100506.53
2023-05-01T16:39:19.147Z,100463.44
2023-05-01T16:41:50.261Z,100492.78
2023-05-01T16:44:18.924Z,100449.47
2023-05-01T16:46:54.527Z,100490.28
2023-05-01T16:49:22.936Z,100484.28
2023-05-01T16:51:50.830Z,100493.06
2023-05-01T16:54:19.360Z,100482.69
2023-05-01T16:56:48.624Z,100477.41
2023-05-01T16:59:16.793Z,100480.19
2023-05-01T17:01:44.824Z,100472.38
2023-05-01T17:04:15.125Z,100470.75
2023-05-01T17:06:43.133Z,100472.59
2023-05-01T17:09:11.904Z,100463.16
2023-05-01T17:11:39.828Z,100463.16
2023-05-01T17:14:09.197Z,100464.09
2023-05-01T17:16:37.165Z,100457.28
2023-05-01T17:19:08.958Z,100458.25
2023-05-01T17:21:36.986Z,100427.50
2023-05-01T17:24:05.449Z,100449.66
2023-05-01T17:26:33.379Z,100448.00
2023-05-01T17:29:02.882Z,100436.72
2023-05-01T17:31:32.690Z,100436.72
2023-05-01T17:34:00.784Z,100412.16
2023-05-01T17:36:29.414Z,100435.06
2023-05-01T17:38:57.535Z,100430.78
2023-05-01T17:41:25.374Z,100428.91
2023-05-01T17:43:55.178Z,100432.56
2023-05-01T17:46:23.179Z,100440.38
2023-05-01T17:48:52.429Z,100433.44
2023-05-01T17:51:20.297Z,100430.84
2023-05-01T17:53:49.558Z,100430.00
2023-05-01T17:56:18.640Z,100415.19
2023-05-01T17:58:46.528Z,100421.56
2023-05-01T18:01:15.221Z,100412.09
2023-05-01T18:03:43.161Z,100389.94
2023-05-01T18:06:14.848Z,100415.75
2023-05-01T18:08:43.410Z,100409.75
2023-05-01T18:11:11.262Z,100402.91
2023-05-01T18:13:40.048Z,100403.00
2023-05-01T18:16:08.153Z,100402.22
2023-05-01T18:18:36.189Z,100396.31
2023-05-01T18:21:04.384Z,100392.94
2023-05-01T18:23:33.633Z,100396.53
2023-05-01T18:26:01.445Z,100369.34
2023-05-01T18:28:29.713Z,100389.69
2023-05-01T18:30:57.706Z,100381.06
2023-05-01T18:33:25.784Z,100370.69
2023-05-01T18:35:54.250Z,100356.63
2023-05-01T18:38:22.128Z,100366.38
2023-05-01T18:40:51.305Z,100368.22
2023-05-01T18:43:19.651Z,100357.78
2023-05-01T18:45:47.618Z,100348.22
2023-05-01T18:48:16.056Z,100352.66
2023-05-01T18:50:54.218Z,100344.91
2023-05-01T18:53:29.164Z,100342.25
2023-05-01T18:55:58.484Z,100336.94
2023-05-01T18:58:26.335Z,100314.69
2023-05-01T19:00:56.431Z,100333.16
2023-05-01T19:03:24.506Z,100328.72
2023-05-01T19:05:52.504Z,100324.28
2023-05-01T19:08:20.481Z,100324.25
2023-05-01T19:10:48.518Z,100324.25
2023-05-01T19:13:17.711Z,100322.56
2023-05-01T19:15:46.573Z,100321.72
2023-05-01T19:18:16.174Z,100313.81
2023-05-01T19:20:45.849Z,100329.59
2023-05-01T19:23:13.775Z,100293.72
2023-05-01T19:25:41.784Z,100298.88
2023-05-01T19:28:09.627Z,100306.94
2023-05-01T19:30:38.913Z,100304.34
2023-05-01T19:33:07.412Z,100304.34
2023-05-01T19:35:35.336Z,100305.19
2023-05-01T19:38:03.290Z,100296.50
2023-05-01T19:40:31.307Z,100301.69
2023-05-01T19:42:59.136Z,100299.91
2023-05-01T19:45:27.108Z,100294.69
2023-05-01T19:47:56.518Z,100291.19
2023-05-01T19:50:24.404Z,100284.16
2023-05-01T19:52:52.263Z,100284.13
2023-05-01T19:55:21.079Z,100254.03
2023-05-01T19:57:48.925Z,100261.09
2023-05-01T20:00:17.223Z,100290.69
2023-05-01T20:02:45.378Z,100261.94
2023-05-01T20:05:14.781Z,100261.19
2023-05-01T20:07:42.718Z,100277.09
2023-05-01T20:10:11.149Z,100266.69
2023-05-01T20:12:39.338Z,100260.63
2023-05-01T20:15:08.621Z,100252.84
2023-05-01T20:17:36.777Z,100256.34
2023-05-01T20:20:04.855Z,100254.72
2023-05-01T20:22:34.283Z,100245.25
2023-05-01T20:25:03.843Z,100247.88
2023-05-01T20:27:31.676Z,100245.25
2023-05-01T20:30:00.050Z,100232.94
2023-05-01T20:32:29.234Z,100233.94
2023-05-01T20:34:57.932Z,100239.09
2023-05-01T20:37:25.876Z,100229.50
2023-05-01T20:39:58.006Z,100234.63
2023-05-01T20:42:27.895Z,100233.69
2023-05-01T20:44:56.062Z,100213.34
2023-05-01T20:47:24.128Z,100231.09
2023-05-01T20:49:51.964Z,100229.41
2023-05-01T20:52:20.203Z,100227.63
2023-05-01T20:54:48.417Z,100223.09
2023-05-01T20:57:17.661Z,100080.72
2023-05-01T20:59:49.765Z,100231.03
2023-05-01T21:02:19.900Z,100217.13
2023-05-01T21:04:47.779Z,100224.94
2023-05-01T21:07:15.837Z,100227.56
2023-05-01T21:09:45.826Z,100225.88
2023-05-01T21:12:14.069Z,100224.16
2023-05-01T21:14:43.471Z,100191.59
2023-05-01T21:17:11.744Z,100225.97
2023-05-01T21:19:44.592Z,100216.44
2023-05-01T21:22:16.972Z,100208.44
2023-05-01T21:24:48.246Z,100204.13
2023-05-01T21:27:16.559Z,100211.31
2023-05-01T21:29:48.604Z,100211.34
2023-05-01T21:32:17.535Z,100214.88
2023-05-01T21:34:45.422Z,100213.16
2023-05-01T21:37:18.717Z,100213.16
2023-05-01T21:39:46.684Z,100110.69
2023-05-01T21:42:15.719Z,100200.03
2023-05-01T21:44:45.051Z,100211.47
2023-05-01T21:47:13.953Z,100195.53
2023-05-01T21:49:41.948Z,100200.16
2023-05-01T21:52:09.909Z,100186.94
2023-05-01T21:54:38.642Z,100207.22
2023-05-01T21:57:08.021Z,100177.34
2023-05-01T21:59:38.075Z,100163.22
2023-05-01T22:02:09.601Z,100199.38
2023-05-01T22:04:38.128Z,100202.00
2023-05-01T22:07:06.734Z,100199.38
2023-05-01T22:09:34.736Z,100057.06
2023-05-01T22:12:02.660Z,100195.94
2023-05-01T22:14:40.248Z,100192.50
2023-05-01T22:17:23.917Z,100193.41
2023-05-01T22:19:52.382Z,100191.72
2023-05-01T22:22:20.466Z,100182.97
2023-05-01T22:24:48.367Z,100192.81
2023-05-01T22:27:17.392Z,100125.78
2023-05-01T22:29:45.791Z,100190.31
2023-05-01T22:32:13.692Z,100188.63
2023-05-01T22:34:43.343Z,100150.47
2023-05-01T22:37:11.892Z,100034.72
2023-05-01T22:39:39.742Z,100186.81
2023-05-01T22:42:07.663Z,100177.88
2023-05-01T22:44:35.809Z,100190.22
2023-05-01T22:47:03.715Z,100185.84
2023-05-01T22:49:32.172Z,100188.31
2023-05-01T22:52:01.687Z,100168.91
2023-05-01T22:54:29.625Z,100198.75
2023-05-01T22:56:57.550Z,100205.66
2023-05-01T22:59:25.962Z,100208.25
2023-05-01T23:01:55.218Z,100217.78
2023-05-01T23:04:23.469Z,100223.00
2023-05-01T23:06:52.785Z,100225.63
2023-05-01T23:09:22.363Z,100225.50
2023-05-01T23:11:50.382Z,100208.63
2023-05-01T23:14:18.791Z,100210.25
2023-05-01T23:16:47.924Z,100221.63
2023-05-01T23:19:21.422Z,100218.97
2023-05-01T23:21:50.108Z,100093.97
2023-05-01T23:24:21.235Z,100220.28
2023-05-01T23:26:50.701Z,100212.88
2023-05-01T23:29:19.702Z,100233.09
2023-05-01T23:31:48.774Z,100218.91
2023-05-01T23:34:18.286Z,100227.59
2023-05-01T23:36:47.792Z,100216.84
2023-05-01T23:39:16.424Z,100234.31
2023-05-01T23:41:44.898Z,100229.00
2023-05-01T23:44:16.752Z,100212.97
2023-05-01T23:46:44.833Z,100226.00
2023-05-01T23:49:12.822Z,100237.31
2023-05-01T23:51:40.731Z,100233.69
2023-05-01T23:54:08.676Z,100220.34
2023-05-01T23:56:36.607Z,100231.84
2023-05-01T23:59:04.416Z,100230.72
